Time;durP1;ratioP1;P1;durP2;ratioP2;P2;SDS_P1;SDS_P2;PMS_P1;PMS_P2;Temp;Humidity;BMP_temperature;BMP_pressure;BME280_temperature;BME280_humidity;BME280_pressure;Samples;Min_cycle;Max_cycle;Signal;HPM_P1;HPM_P2
2023/03/03 00:03:44;;;;;;;18.02;13.45;;;;;;;;;;10419967;28;20909;-85
2023/03/03 00:08:46;;;;;;;19.13;13.55;;;;;;;;;;10414651;28;20440;-84
2023/03/03 00:13:51;;;;;;;17.88;13.50;;;;;;;;;;10404861;28;20405;-85
2023/03/03 00:18:55;;;;;;;16.70;12.68;;;;;;;;;;10406167;28;20886;-83
2023/03/03 00:24:16;;;;;;;17.63;12.17;;;;;;;;;;10393678;28;20934;-85
2023/03/03 00:29:29;;;;;;;18.58;12.52;;;;;;;;;;10404368;28;20409;-85
2023/03/03 00:34:34;;;;;;;20.57;11.93;;;;;;;;;;10397897;28;20439;-86
2023/03/03 00:39:38;;;;;;;16.90;12.37;;;;;;;;;;10396710;28;20407;-84
2023/03/03 00:44:42;;;;;;;15.98;11.25;;;;;;;;;;10394087;28;20452;-84
2023/03/03 00:49:46;;;;;;;18.38;11.73;;;;;;;;;;10404539;28;20433;-85
2023/03/03 00:54:48;;;;;;;16.25;10.65;;;;;;;;;;10401300;28;20423;-85
2023/03/03 00:59:49;;;;;;;15.35;10.60;;;;;;;;;;10402749;28;20407;-85
2023/03/03 01:04:55;;;;;;;16.75;10.50;;;;;;;;;;10402149;28;20411;-84
2023/03/03 01:09:56;;;;;;;15.83;10.23;;;;;;;;;;10393785;28;20785;-85
2023/03/03 01:14:58;;;;;;;14.20;9.80;;;;;;;;;;10396008;28;20801;-85
2023/03/03 01:20:02;;;;;;;15.05;9.40;;;;;;;;;;10395195;28;20777;-85
2023/03/03 01:25:05;;;;;;;13.30;9.23;;;;;;;;;;10395163;28;20429;-85
2023/03/03 01:30:08;;;;;;;13.85;8.73;;;;;;;;;;10388666;28;20411;-83
2023/03/03 01:35:11;;;;;;;12.18;8.88;;;;;;;;;;10388836;28;20429;-85
2023/03/03 01:40:15;;;;;;;12.57;8.23;;;;;;;;;;10399167;28;20424;-85
2023/03/03 01:45:20;;;;;;;11.20;8.40;;;;;;;;;;10394474;28;21067;-85
2023/03/03 01:50:45;;;;;;;11.75;8.52;;;;;;;;;;10402265;28;20900;-85
2023/03/03 01:55:49;;;;;;;11.85;8.57;;;;;;;;;;10402217;28;20848;-84
2023/03/03 02:00:56;;;;;;;11.27;8.37;;;;;;;;;;10393018;28;20429;-85
2023/03/03 02:06:03;;;;;;;13.95;8.70;;;;;;;;;;10388722;28;20397;-84
2023/03/03 02:11:06;;;;;;;11.48;8.30;;;;;;;;;;10396619;28;20421;-84
2023/03/03 02:16:08;;;;;;;12.70;8.50;;;;;;;;;;10389821;28;20401;-84
2023/03/03 02:21:15;;;;;;;12.15;8.30;;;;;;;;;;10384809;28;20421;-84
2023/03/03 02:26:21;;;;;;;10.75;8.07;;;;;;;;;;10382940;28;20423;-86
2023/03/03 02:31:25;;;;;;;11.95;8.02;;;;;;;;;;10393404;28;20420;-85
2023/03/03 02:36:29;;;;;;;11.68;7.82;;;;;;;;;;10392237;28;20421;-85
2023/03/03 02:41:38;;;;;;;12.80;8.30;;;;;;;;;;10392310;28;20429;-85
2023/03/03 02:46:42;;;;;;;10.18;7.80;;;;;;;;;;10393140;28;20457;-84
2023/03/03 02:51:45;;;;;;;11.00;7.70;;;;;;;;;;10395997;28;20442;-86
2023/03/03 02:56:48;;;;;;;13.70;7.90;;;;;;;;;;10388173;28;20423;-85
2023/03/03 03:01:50;;;;;;;10.68;7.70;;;;;;;;;;10398733;28;20425;-85
2023/03/03 03:06:54;;;;;;;11.10;7.90;;;;;;;;;;10391742;28;20411;-84
2023/03/03 03:12:01;;;;;;;11.13;7.50;;;;;;;;;;10399738;28;20417;-85
2023/03/03 03:17:03;;;;;;;11.63;7.70;;;;;;;;;;10399230;28;20408;-85
2023/03/03 03:22:05;;;;;;;11.18;7.20;;;;;;;;;;10392945;28;21009;-84
2023/03/03 03:27:08;;;;;;;10.93;7.22;;;;;;;;;;10402985;28;20459;-85
2023/03/03 03:32:11;;;;;;;11.43;7.35;;;;;;;;;;10405993;28;20408;-83
2023/03/03 03:37:13;;;;;;;9.98;7.00;;;;;;;;;;10394865;28;20413;-85
2023/03/03 03:42:16;;;;;;;10.20;6.88;;;;;;;;;;10400490;28;20416;-84
2023/03/03 03:47:18;;;;;;;11.13;6.90;;;;;;;;;;10395374;28;20423;-84
2023/03/03 03:52:20;;;;;;;10.65;6.97;;;;;;;;;;10394975;28;20872;-84
2023/03/03 03:57:23;;;;;;;10.00;6.60;;;;;;;;;;10425414;28;20432;-84
2023/03/03 04:02:25;;;;;;;11.88;7.32;;;;;;;;;;10410447;28;20417;-85
2023/03/03 04:07:27;;;;;;;10.13;7.10;;;;;;;;;;10395641;28;20885;-84
2023/03/03 04:12:34;;;;;;;10.20;6.80;;;;;;;;;;10406330;28;20442;-84
2023/03/03 04:17:36;;;;;;;9.75;6.63;;;;;;;;;;10393136;28;20453;-84
2023/03/03 04:22:39;;;;;;;8.20;6.37;;;;;;;;;;10402248;28;20429;-85
2023/03/03 04:27:42;;;;;;;9.10;6.35;;;;;;;;;;10401929;28;20773;-85
2023/03/03 04:32:44;;;;;;;9.47;6.50;;;;;;;;;;10392699;28;20403;-85
2023/03/03 04:37:46;;;;;;;9.70;6.72;;;;;;;;;;10391077;28;20522;-85
2023/03/03 04:42:49;;;;;;;9.15;6.75;;;;;;;;;;10393457;28;20425;-84
2023/03/03 04:47:51;;;;;;;8.70;6.72;;;;;;;;;;10393735;28;20429;-85
2023/03/03 04:52:53;;;;;;;9.10;6.28;;;;;;;;;;10397373;28;20446;-85
2023/03/03 04:57:56;;;;;;;7.63;6.20;;;;;;;;;;10392498;28;20409;-84
2023/03/03 05:02:58;;;;;;;8.77;6.33;;;;;;;;;;10401422;28;20453;-86
2023/03/03 05:08:00;;;;;;;9.10;6.00;;;;;;;;;;10397831;28;20431;-84
2023/03/03 05:13:03;;;;;;;10.03;6.40;;;;;;;;;;10402815;28;20423;-85
2023/03/03 05:18:05;;;;;;;10.55;6.70;;;;;;;;;;10387143;28;20555;-85
2023/03/03 05:23:07;;;;;;;9.43;7.05;;;;;;;;;;10387780;28;20525;-85
2023/03/03 05:28:11;;;;;;;12.80;7.57;;;;;;;;;;10400443;28;20409;-84
2023/03/03 05:33:14;;;;;;;9.90;7.77;;;;;;;;;;10399933;28;20409;-83
2023/03/03 05:38:16;;;;;;;9.02;6.47;;;;;;;;;;10398097;28;20496;-84
2023/03/03 05:43:19;;;;;;;8.10;6.00;;;;;;;;;;10394015;28;20431;-84
2023/03/03 05:48:21;;;;;;;8.75;6.43;;;;;;;;;;10390281;28;20440;-84
2023/03/03 05:53:23;;;;;;;9.82;6.43;;;;;;;;;;10391319;28;21749;-84
2023/03/03 05:58:27;;;;;;;8.68;6.15;;;;;;;;;;10401587;28;20780;-83
2023/03/03 06:03:29;;;;;;;9.87;6.47;;;;;;;;;;10395982;28;20423;-84
2023/03/03 06:08:31;;;;;;;9.20;6.70;;;;;;;;;;10400626;28;20493;-83
2023/03/03 06:13:34;;;;;;;12.88;10.13;;;;;;;;;;10399702;28;20896;-83
2023/03/03 06:18:36;;;;;;;24.63;15.97;;;;;;;;;;10398114;28;20588;-83
2023/03/03 06:23:38;;;;;;;12.93;7.97;;;;;;;;;;10385658;28;20516;-83
2023/03/03 06:28:42;;;;;;;11.02;8.35;;;;;;;;;;10395096;28;20450;-83
2023/03/03 06:33:44;;;;;;;12.70;7.60;;;;;;;;;;10396687;28;20405;-82
2023/03/03 06:38:46;;;;;;;9.17;6.73;;;;;;;;;;10399902;28;20433;-83
2023/03/03 06:43:50;;;;;;;12.68;8.23;;;;;;;;;;10431075;23;20421;-83
2023/03/03 06:48:52;;;;;;;17.73;11.63;;;;;;;;;;10390891;28;20417;-83
2023/03/03 06:53:55;;;;;;;13.60;7.72;;;;;;;;;;10392999;28;20408;-83
2023/03/03 06:59:01;;;;;;;15.20;9.70;;;;;;;;;;10390702;28;20407;-83
2023/03/03 07:04:11;;;;;;;12.57;8.63;;;;;;;;;;10368618;28;20437;-82
2023/03/03 07:09:21;;;;;;;15.37;8.63;;;;;;;;;;10391983;28;20433;-83
2023/03/03 07:14:24;;;;;;;13.60;8.23;;;;;;;;;;10390666;28;20424;-83
2023/03/03 07:19:31;;;;;;;10.30;7.13;;;;;;;;;;10389083;28;20432;-84
2023/03/03 07:24:33;;;;;;;12.02;7.68;;;;;;;;;;10391510;28;20427;-83
2023/03/03 07:29:39;;;;;;;12.07;8.13;;;;;;;;;;10395823;28;20405;-84
2023/03/03 07:34:46;;;;;;;12.55;7.47;;;;;;;;;;10391142;28;20424;-83
2023/03/03 07:39:50;;;;;;;10.07;7.20;;;;;;;;;;10395289;28;20406;-85
2023/03/03 07:44:56;;;;;;;8.98;7.10;;;;;;;;;;10387475;28;20511;-84
2023/03/03 07:50:01;;;;;;;10.80;7.57;;;;;;;;;;10392970;28;20409;-84
2023/03/03 07:55:22;;;;;;;14.93;9.50;;;;;;;;;;10409273;28;20596;-84
2023/03/03 08:01:10;;;;;;;22.17;12.25;;;;;;;;;;10406224;28;20449;-84
2023/03/03 08:06:37;;;;;;;13.02;7.60;;;;;;;;;;10400988;28;20470;-84
2023/03/03 08:11:49;;;;;;;10.47;7.80;;;;;;;;;;10404053;28;20427;-84
2023/03/03 08:16:51;;;;;;;13.60;8.20;;;;;;;;;;10403765;28;20488;-84
2023/03/03 08:22:00;;;;;;;14.23;8.50;;;;;;;;;;10399953;28;20519;-84
2023/03/03 08:27:02;;;;;;;15.18;8.48;;;;;;;;;;10398067;28;20465;-84
2023/03/03 08:32:05;;;;;;;11.45;7.80;;;;;;;;;;10402096;28;20409;-84
2023/03/03 08:37:08;;;;;;;17.63;10.00;;;;;;;;;;10405499;28;20419;-84
2023/03/03 08:42:10;;;;;;;11.07;8.07;;;;;;;;;;10403485;28;20970;-84
2023/03/03 08:47:12;;;;;;;23.17;12.68;;;;;;;;;;10402972;28;20511;-84
2023/03/03 08:52:15;;;;;;;33.27;16.67;;;;;;;;;;10404837;28;20420;-82
2023/03/03 08:57:17;;;;;;;14.73;8.77;;;;;;;;;;10406930;28;20495;-83
2023/03/03 09:02:19;;;;;;;13.30;9.07;;;;;;;;;;10406666;28;20442;-83
2023/03/03 09:07:22;;;;;;;15.93;8.10;;;;;;;;;;10397619;28;20528;-83
2023/03/03 09:12:30;;;;;;;30.73;14.80;;;;;;;;;;10399260;28;21017;-84
2023/03/03 09:17:34;;;;;;;14.20;7.82;;;;;;;;;;10402937;28;20463;-85
2023/03/03 09:22:38;;;;;;;9.60;7.03;;;;;;;;;;10397247;28;20467;-83
2023/03/03 09:27:40;;;;;;;11.77;7.70;;;;;;;;;;10395300;28;20789;-85
2023/03/03 09:32:42;;;;;;;10.80;7.18;;;;;;;;;;10402317;28;20463;-85
2023/03/03 09:37:48;;;;;;;12.35;7.88;;;;;;;;;;10402861;28;20414;-84
2023/03/03 09:43:03;;;;;;;15.77;8.80;;;;;;;;;;10404438;28;20424;-84
2023/03/03 09:48:30;;;;;;;11.52;7.78;;;;;;;;;;10395310;28;20475;-85
2023/03/03 09:53:51;;;;;;;14.15;8.70;;;;;;;;;;10393758;28;20492;-85
2023/03/03 09:59:05;;;;;;;9.70;6.25;;;;;;;;;;10399332;28;20407;-85
2023/03/03 10:04:41;;;;;;;6.68;5.10;;;;;;;;;;10403084;28;20852;-85
2023/03/03 10:10:11;;;;;;;7.68;3.83;;;;;;;;;;10395658;28;20498;-83
2023/03/03 10:15:39;;;;;;;6.85;4.30;;;;;;;;;;10389627;28;20459;-85
2023/03/03 10:20:52;;;;;;;7.90;4.67;;;;;;;;;;10399660;28;20780;-85
2023/03/03 10:26:04;;;;;;;6.65;4.50;;;;;;;;;;10399797;28;20529;-85
2023/03/03 10:31:18;;;;;;;7.43;4.63;;;;;;;;;;10400281;28;20413;-86
2023/03/03 10:36:40;;;;;;;10.10;4.90;;;;;;;;;;10398359;28;20402;-85
2023/03/03 10:42:10;;;;;;;9.40;5.55;;;;;;;;;;10392504;28;20496;-86
2023/03/03 10:47:35;;;;;;;6.73;4.57;;;;;;;;;;10401724;28;20775;-86
2023/03/03 10:52:43;;;;;;;8.20;4.40;;;;;;;;;;10408843;28;20421;-86
2023/03/03 10:57:56;;;;;;;7.15;4.43;;;;;;;;;;10398584;28;20501;-86
2023/03/03 11:03:30;;;;;;;5.30;4.10;;;;;;;;;;10390313;28;20430;-84
2023/03/03 11:08:38;;;;;;;6.93;4.25;;;;;;;;;;10386501;28;20496;-86
2023/03/03 11:13:48;;;;;;;6.70;3.75;;;;;;;;;;10403811;28;20896;-85
2023/03/03 11:19:02;;;;;;;5.63;3.88;;;;;;;;;;10400112;28;20865;-86
2023/03/03 11:24:29;;;;;;;5.55;4.25;;;;;;;;;;10400541;28;20960;-86
2023/03/03 11:29:44;;;;;;;7.53;4.70;;;;;;;;;;10411062;28;20506;-86
2023/03/03 11:34:57;;;;;;;8.85;4.80;;;;;;;;;;10396140;28;20972;-86
2023/03/03 11:40:09;;;;;;;7.72;4.78;;;;;;;;;;10406168;28;20414;-86
2023/03/03 11:45:17;;;;;;;7.10;5.13;;;;;;;;;;10403023;28;20498;-87
2023/03/03 11:50:22;;;;;;;7.63;5.13;;;;;;;;;;10409061;28;20401;-85
2023/03/03 11:55:28;;;;;;;7.25;4.72;;;;;;;;;;10401515;28;20417;-87
2023/03/03 12:00:41;;;;;;;8.73;5.28;;;;;;;;;;10407014;28;20568;-86
2023/03/03 12:05:50;;;;;;;10.25;6.00;;;;;;;;;;10404661;28;20429;-86
2023/03/03 12:11:00;;;;;;;7.13;4.72;;;;;;;;;;10395775;28;20413;-87
2023/03/03 12:16:12;;;;;;;7.88;4.53;;;;;;;;;;10399384;28;20450;-86
2023/03/03 12:21:27;;;;;;;8.10;5.93;;;;;;;;;;10411442;28;20405;-86
2023/03/03 12:26:36;;;;;;;6.05;3.70;;;;;;;;;;10395307;28;20516;-87
2023/03/03 12:31:51;;;;;;;4.78;3.50;;;;;;;;;;10402260;28;20494;-86
2023/03/03 12:37:12;;;;;;;4.32;3.42;;;;;;;;;;10412576;28;20880;-86
2023/03/03 12:42:25;;;;;;;5.13;3.73;;;;;;;;;;10389077;28;21010;-87
2023/03/03 12:47:37;;;;;;;7.90;4.15;;;;;;;;;;10393224;28;20484;-86
2023/03/03 12:52:50;;;;;;;7.68;4.60;;;;;;;;;;10391939;28;20529;-87
2023/03/03 12:58:04;;;;;;;6.28;4.13;;;;;;;;;;10392869;28;20500;-86
2023/03/03 13:03:14;;;;;;;5.55;4.25;;;;;;;;;;10402436;28;20927;-86
2023/03/03 13:08:54;;;;;;;7.25;4.43;;;;;;;;;;10401677;28;20412;-86
2023/03/03 13:14:04;;;;;;;8.63;4.63;;;;;;;;;;10385849;28;20432;-86
2023/03/03 13:19:12;;;;;;;7.78;4.93;;;;;;;;;;10395478;28;20421;-85
2023/03/03 13:24:22;;;;;;;6.07;4.72;;;;;;;;;;10389781;28;20608;-86
2023/03/03 13:29:27;;;;;;;5.57;4.33;;;;;;;;;;10401156;28;20512;-86
2023/03/03 13:34:42;;;;;;;6.32;4.35;;;;;;;;;;10401320;28;20730;-86
2023/03/03 13:39:55;;;;;;;7.72;4.22;;;;;;;;;;10402570;28;20453;-87
2023/03/03 13:44:58;;;;;;;5.38;3.88;;;;;;;;;;10405010;28;20421;-85
2023/03/03 13:50:11;;;;;;;7.07;3.60;;;;;;;;;;10402930;28;20406;-87
2023/03/03 13:55:21;;;;;;;5.23;3.60;;;;;;;;;;10405591;28;20419;-87
2023/03/03 14:00:32;;;;;;;9.43;4.13;;;;;;;;;;10401562;28;20448;-87
2023/03/03 14:05:39;;;;;;;7.65;4.32;;;;;;;;;;10404292;28;20521;-86
2023/03/03 14:10:47;;;;;;;7.18;4.22;;;;;;;;;;10403227;28;20966;-86
2023/03/03 14:15:55;;;;;;;7.30;4.10;;;;;;;;;;10396095;28;20413;-87
2023/03/03 14:21:04;;;;;;;4.82;4.05;;;;;;;;;;10393863;28;20401;-86
2023/03/03 14:26:09;;;;;;;8.75;5.28;;;;;;;;;;10401427;28;20428;-87
2023/03/03 14:31:22;;;;;;;6.53;4.20;;;;;;;;;;10402332;28;20413;-86
2023/03/03 14:36:29;;;;;;;8.20;5.20;;;;;;;;;;10395371;28;20437;-87
2023/03/03 14:41:40;;;;;;;6.22;4.30;;;;;;;;;;10389623;28;20440;-86
2023/03/03 14:46:44;;;;;;;8.98;4.60;;;;;;;;;;10393701;28;20565;-86
2023/03/03 14:51:49;;;;;;;6.72;4.78;;;;;;;;;;10385657;28;20514;-87
2023/03/03 14:57:06;;;;;;;6.27;4.13;;;;;;;;;;10388827;28;20496;-87
2023/03/03 15:02:29;;;;;;;8.68;5.38;;;;;;;;;;10398447;28;20485;-86
2023/03/03 15:07:35;;;;;;;7.88;4.35;;;;;;;;;;10413156;28;20862;-87
2023/03/03 15:12:39;;;;;;;10.30;4.73;;;;;;;;;;10416132;28;20423;-86
2023/03/03 15:17:44;;;;;;;7.25;5.20;;;;;;;;;;10419147;28;20409;-88
2023/03/03 15:22:52;;;;;;;8.23;5.00;;;;;;;;;;10410133;28;20492;-88
2023/03/03 15:28:21;;;;;;;8.57;4.90;;;;;;;;;;10413391;28;20431;-87
2023/03/03 15:33:29;;;;;;;7.57;5.47;;;;;;;;;;10415186;28;20427;-87
2023/03/03 15:38:55;;;;;;;8.38;4.47;;;;;;;;;;10407364;28;20905;-86
2023/03/03 15:44:06;;;;;;;8.50;5.07;;;;;;;;;;10405680;28;20429;-86
2023/03/03 15:49:22;;;;;;;8.18;5.22;;;;;;;;;;10419589;28;20421;-90
2023/03/03 15:54:35;;;;;;;7.63;4.50;;;;;;;;;;10400500;28;20808;-84
2023/03/03 16:00:05;;;;;;;7.10;3.30;;;;;;;;;;10395146;28;20889;-85
2023/03/03 16:05:15;;;;;;;7.00;3.80;;;;;;;;;;10405296;28;20435;-85
2023/03/03 16:10:29;;;;;;;8.02;4.95;;;;;;;;;;10390862;28;20409;-84
2023/03/03 16:15:55;;;;;;;8.93;5.00;;;;;;;;;;10403855;28;20429;-85
2023/03/03 16:21:10;;;;;;;8.40;4.40;;;;;;;;;;10398616;28;20437;-85
2023/03/03 16:26:24;;;;;;;10.98;4.97;;;;;;;;;;10398005;28;20887;-85
2023/03/03 16:31:33;;;;;;;14.75;9.30;;;;;;;;;;10395766;28;20434;-84
2023/03/03 16:36:47;;;;;;;41.78;23.65;;;;;;;;;;10378905;28;20413;-84
2023/03/03 16:42:00;;;;;;;16.13;9.47;;;;;;;;;;10392176;28;20535;-85
2023/03/03 16:47:15;;;;;;;11.93;6.90;;;;;;;;;;10401444;28;20425;-84
2023/03/03 16:52:24;;;;;;;12.30;7.03;;;;;;;;;;10392310;28;20856;-85
2023/03/03 16:57:34;;;;;;;14.02;7.55;;;;;;;;;;10389584;28;20501;-84
2023/03/03 17:03:12;;;;;;;14.95;6.97;;;;;;;;;;10379743;28;20441;-85
2023/03/03 17:08:29;;;;;;;41.78;16.80;;;;;;;;;;10399907;28;21024;-85
2023/03/03 17:13:48;;;;;;;20.80;9.30;;;;;;;;;;10398647;28;20454;-84
2023/03/03 17:19:00;;;;;;;17.00;9.15;;;;;;;;;;10386652;28;20422;-83
2023/03/03 17:24:13;;;;;;;21.27;10.05;;;;;;;;;;10392105;28;20428;-85
2023/03/03 17:29:39;;;;;;;26.58;9.35;;;;;;;;;;10450079;28;20469;-87
2023/03/03 17:34:53;;;;;;;21.10;9.37;;;;;;;;;;10439756;28;20408;-88
2023/03/03 17:40:25;;;;;;;20.23;9.25;;;;;;;;;;10443039;28;20458;-87
2023/03/03 17:45:31;;;;;;;15.50;8.50;;;;;;;;;;10435613;28;20427;-87
2023/03/03 17:50:50;;;;;;;17.90;9.33;;;;;;;;;;10437871;28;20521;-87
2023/03/03 17:56:03;;;;;;;14.57;8.33;;;;;;;;;;10436747;28;20411;-86
2023/03/03 18:01:20;;;;;;;15.35;8.38;;;;;;;;;;10433422;28;20961;-87
2023/03/03 18:06:37;;;;;;;22.67;10.32;;;;;;;;;;10442458;28;20474;-85
2023/03/03 18:11:59;;;;;;;22.00;11.35;;;;;;;;;;10440976;28;20422;-87
2023/03/03 18:17:33;;;;;;;21.02;12.60;;;;;;;;;;10441271;28;20791;-87
2023/03/03 18:22:43;;;;;;;18.13;11.77;;;;;;;;;;10427568;28;20414;-84
2023/03/03 18:27:46;;;;;;;18.02;11.98;;;;;;;;;;10438502;28;20978;-86
2023/03/03 18:33:03;;;;;;;17.13;10.88;;;;;;;;;;10438538;28;20496;-87
2023/03/03 18:38:29;;;;;;;19.60;11.63;;;;;;;;;;10434134;28;20417;-86
2023/03/03 18:43:48;;;;;;;20.90;12.45;;;;;;;;;;10430178;28;20445;-85
2023/03/03 18:48:53;;;;;;;19.73;11.77;;;;;;;;;;10430672;28;20420;-84
2023/03/03 18:54:01;;;;;;;19.90;12.85;;;;;;;;;;10430120;28;20525;-84
2023/03/03 18:59:03;;;;;;;22.55;13.95;;;;;;;;;;10425404;28;20422;-83
2023/03/03 19:04:17;;;;;;;20.45;13.52;;;;;;;;;;10427255;28;20464;-84
2023/03/03 19:09:41;;;;;;;21.00;13.32;;;;;;;;;;10430019;28;21009;-84
2023/03/03 19:14:45;;;;;;;25.27;14.63;;;;;;;;;;10425934;28;20412;-85
2023/03/03 19:20:02;;;;;;;22.52;14.65;;;;;;;;;;10432093;28;20503;-84
2023/03/03 19:25:15;;;;;;;25.10;15.25;;;;;;;;;;10427229;28;20933;-83
2023/03/03 19:30:27;;;;;;;25.23;15.00;;;;;;;;;;10432952;28;20505;-84
2023/03/03 19:35:38;;;;;;;23.57;15.70;;;;;;;;;;10426660;28;20600;-83
2023/03/03 19:40:46;;;;;;;23.75;16.08;;;;;;;;;;10423981;28;20902;-85
2023/03/03 19:46:09;;;;;;;23.40;16.23;;;;;;;;;;10426981;28;20458;-84
2023/03/03 19:51:22;;;;;;;23.88;15.27;;;;;;;;;;10437593;28;20404;-84
2023/03/03 19:56:33;;;;;;;24.53;16.47;;;;;;;;;;10437443;28;20448;-84
2023/03/03 20:01:47;;;;;;;24.42;17.17;;;;;;;;;;10438003;28;20431;-84
2023/03/03 20:07:01;;;;;;;23.17;15.13;;;;;;;;;;10438836;28;20459;-85
2023/03/03 20:12:16;;;;;;;24.88;15.93;;;;;;;;;;10440251;28;20434;-84
2023/03/03 20:17:35;;;;;;;25.67;16.48;;;;;;;;;;10443639;28;20428;-86
2023/03/03 20:22:47;;;;;;;34.13;20.90;;;;;;;;;;10440011;28;20424;-87
2023/03/03 20:28:00;;;;;;;32.63;18.83;;;;;;;;;;10437669;28;20428;-86
2023/03/03 20:33:18;;;;;;;33.58;19.15;;;;;;;;;;10436622;28;20426;-86
2023/03/03 20:38:29;;;;;;;30.13;18.13;;;;;;;;;;10440750;28;20438;-85
2023/03/03 20:43:47;;;;;;;38.75;20.95;;;;;;;;;;10434737;28;20422;-85
2023/03/03 20:49:02;;;;;;;37.07;20.43;;;;;;;;;;10431532;28;20978;-86
2023/03/03 20:54:16;;;;;;;28.08;15.95;;;;;;;;;;10436890;28;20413;-84
2023/03/03 20:59:26;;;;;;;27.27;16.58;;;;;;;;;;10432843;28;20514;-85
2023/03/03 21:04:30;;;;;;;26.05;16.50;;;;;;;;;;10444616;28;20427;-86
2023/03/03 21:09:35;;;;;;;26.45;17.25;;;;;;;;;;10443375;28;21079;-85
2023/03/03 21:14:37;;;;;;;26.33;17.52;;;;;;;;;;10441039;28;21351;-86
2023/03/03 21:19:39;;;;;;;28.65;17.80;;;;;;;;;;10446554;28;20450;-86
2023/03/03 21:24:51;;;;;;;30.48;19.33;;;;;;;;;;10439513;28;20431;-85
2023/03/03 21:30:04;;;;;;;32.15;18.75;;;;;;;;;;10440406;28;20416;-85
2023/03/03 21:35:08;;;;;;;29.55;20.15;;;;;;;;;;10439229;28;20467;-85
2023/03/03 21:40:19;;;;;;;32.72;20.77;;;;;;;;;;10438883;28;20455;-85
2023/03/03 21:45:22;;;;;;;29.45;20.75;;;;;;;;;;10438869;28;20427;-85
2023/03/03 21:50:26;;;;;;;32.42;19.80;;;;;;;;;;10438493;28;20431;-86
2023/03/03 21:55:29;;;;;;;34.90;21.83;;;;;;;;;;10441858;28;20851;-86
2023/03/03 22:00:31;;;;;;;33.43;22.10;;;;;;;;;;10440817;28;20480;-85
2023/03/03 22:05:33;;;;;;;36.67;22.67;;;;;;;;;;10442644;28;20438;-85
2023/03/03 22:10:36;;;;;;;36.87;23.43;;;;;;;;;;10444007;28;20466;-84
2023/03/03 22:15:38;;;;;;;33.33;22.83;;;;;;;;;;10443593;28;20411;-86
2023/03/03 22:20:40;;;;;;;34.27;21.83;;;;;;;;;;10435017;28;20532;-83
2023/03/03 22:25:44;;;;;;;36.90;22.20;;;;;;;;;;10443082;28;20516;-84
2023/03/03 22:30:46;;;;;;;33.33;19.98;;;;;;;;;;10446928;28;20865;-83
2023/03/03 22:35:47;;;;;;;27.58;18.85;;;;;;;;;;10445737;28;20415;-84
2023/03/03 22:40:51;;;;;;;35.03;20.65;;;;;;;;;;10441855;28;20413;-83
2023/03/03 22:45:53;;;;;;;34.65;20.48;;;;;;;;;;10438519;28;20460;-84
2023/03/03 22:50:55;;;;;;;29.85;20.17;;;;;;;;;;10437766;28;20399;-84
2023/03/03 22:55:58;;;;;;;32.00;19.83;;;;;;;;;;10436439;28;20408;-85
2023/03/03 23:01:00;;;;;;;29.70;19.90;;;;;;;;;;10437868;28;20478;-84
2023/03/03 23:06:02;;;;;;;30.73;19.25;;;;;;;;;;10440918;28;20421;-85
2023/03/03 23:11:05;;;;;;;31.60;19.77;;;;;;;;;;10441384;28;20881;-85
2023/03/03 23:16:07;;;;;;;31.95;18.48;;;;;;;;;;10428966;28;20799;-84
2023/03/03 23:21:09;;;;;;;23.83;16.45;;;;;;;;;;10433912;28;20500;-85
2023/03/03 23:26:12;;;;;;;27.98;17.98;;;;;;;;;;10442327;28;20502;-85
2023/03/03 23:31:14;;;;;;;27.45;18.58;;;;;;;;;;10438953;28;20532;-85
2023/03/03 23:36:16;;;;;;;28.23;18.48;;;;;;;;;;10440252;28;20405;-85
2023/03/03 23:41:19;;;;;;;26.00;18.23;;;;;;;;;;10442409;28;20427;-83
2023/03/03 23:46:21;;;;;;;27.23;17.70;;;;;;;;;;10441075;28;20421;-85
2023/03/03 23:51:23;;;;;;;26.50;17.73;;;;;;;;;;10436256;28;20498;-84
2023/03/03 23:56:26;;;;;;;27.15;17.60;;;;;;;;;;10442689;28;20406;-85
